Time;durP1;ratioP1;P1;durP2;ratioP2;P2;SDS_P1;SDS_P2;PMS_P1;PMS_P2;Temp;Humidity;BMP_temperature;BMP_pressure;BME280_temperature;BME280_humidity;BME280_pressure;Samples;Min_cycle;Max_cycle;Signal;HPM_P1;HPM_P2
2022/08/01 00:01:30;;;;;;;;;1.00;1.00;;;;;26.79;70.86;101547.69;5020932;28;68055;-72
2022/08/01 00:03:56;;;;;;;;;1.00;1.00;;;;;26.79;71.11;101552.22;5039887;28;45300;-71
2022/08/01 00:06:21;;;;;;;;;1.33;1.33;;;;;26.79;70.86;101542.28;5039046;28;53313;-73
2022/08/01 00:08:46;;;;;;;;;0.33;0.33;;;;;26.78;71.71;101547.75;5038741;28;63319;-71
2022/08/01 00:11:12;;;;;;;;;1.00;1.00;;;;;26.79;71.21;101552.22;5039306;28;45157;-72
2022/08/01 00:13:37;;;;;;;;;1.00;1.00;;;;;26.78;71.26;101554.03;5039378;28;45488;-73
2022/08/01 00:16:03;;;;;;;;;1.00;1.00;;;;;26.76;71.16;101549.66;5021695;28;45382;-72
2022/08/01 00:18:28;;;;;;;;;2.00;2.00;;;;;26.76;71.30;101553.25;5021599;28;45748;-73
2022/08/01 00:20:54;;;;;;;;;0.67;0.67;;;;;26.76;71.91;101553.25;5004560;28;45444;-73
2022/08/01 00:23:19;;;;;;;;;1.00;1.00;;;;;26.73;71.61;101542.53;5038257;28;45251;-73
2022/08/01 00:25:44;;;;;;;;;0.00;0.00;;;;;26.74;71.98;101544.31;5039340;28;45471;-72
2022/08/01 00:28:10;;;;;;;;;3.00;1.00;;;;;26.69;72.10;101534.63;5038534;28;50379;-71
2022/08/01 00:30:36;;;;;;;;;1.00;1.00;;;;;26.67;72.35;101541.94;5038553;28;60369;-72
2022/08/01 00:33:02;;;;;;;;;1.00;1.00;;;;;26.65;72.07;101542.00;5021550;28;45515;-73
2022/08/01 00:35:27;;;;;;;;;1.00;1.00;;;;;26.60;72.34;101525.97;5004129;28;45590;-72
2022/08/01 00:37:52;;;;;;;;;1.00;1.00;;;;;26.59;72.59;101529.63;5038188;28;70542;-72
2022/08/01 00:40:18;;;;;;;;;3.00;1.33;;;;;26.55;72.19;101519.00;5038695;28;45287;-72
2022/08/01 00:42:43;;;;;;;;;1.00;1.00;;;;;26.55;72.25;101532.53;5039225;28;45398;-72
2022/08/01 00:45:09;;;;;;;;;1.00;1.00;;;;;26.52;72.76;101521.81;5038976;28;45631;-71
2022/08/01 00:47:34;;;;;;;;;0.67;0.67;;;;;26.45;72.48;101518.50;5004203;28;48381;-72
2022/08/01 00:50:00;;;;;;;;;1.00;1.00;;;;;26.43;73.27;101520.41;5037948;28;61846;-71
2022/08/01 00:52:25;;;;;;;;;1.00;1.00;;;;;26.42;73.40;101521.38;5038178;28;58057;-72
2022/08/01 00:54:51;;;;;;;;;1.33;1.33;;;;;26.38;72.94;101522.41;5020154;28;64253;-72
2022/08/01 00:57:16;;;;;;;;;1.33;1.33;;;;;26.36;74.00;101521.56;5028412;28;46788;-72
2022/08/01 00:59:41;;;;;;;;;1.33;1.33;;;;;26.30;73.42;101516.44;5018736;28;45269;-72
2022/08/01 01:02:07;;;;;;;;;1.00;1.00;;;;;26.25;74.30;101511.22;5018951;28;45231;-71
2022/08/01 01:04:32;;;;;;;;;1.00;1.00;;;;;26.23;74.28;101510.41;5018816;28;45435;-71
2022/08/01 01:07:13;;;;;;;;;1.33;1.00;;;;;26.27;74.04;101519.28;5000875;28;46445;-72
2022/08/01 01:10:05;;;;;;;;;1.00;1.00;;;;;26.25;74.71;101529.28;5018539;28;45329;-72
2022/08/01 01:12:43;;;;;;;;;1.00;1.00;;;;;26.26;74.59;101520.22;5000897;28;45584;-71
2022/08/01 01:15:21;;;;;;;;;1.00;1.00;;;;;26.27;74.67;101519.28;5017602;28;45303;-70
2022/08/01 01:17:57;;;;;;;;;2.00;2.00;;;;;26.31;74.96;101521.81;5000512;28;45805;-71
2022/08/01 01:20:52;;;;;;;;;1.00;1.00;;;;;26.29;74.66;101512.84;5014113;28;45451;-72
2022/08/01 01:23:51;;;;;;;;;1.67;1.67;;;;;26.30;75.15;101520.03;5007348;28;45525;-72
2022/08/01 01:26:54;;;;;;;;;2.00;2.00;;;;;26.26;74.60;101514.81;5038416;28;45364;-72
2022/08/01 01:29:25;;;;;;;;;3.00;1.00;;;;;26.23;75.50;101518.53;5024618;28;46452;-72
2022/08/01 01:31:53;;;;;;;;;2.00;2.00;;;;;26.18;75.52;101509.72;5038137;28;45450;-70
2022/08/01 01:34:21;;;;;;;;;1.00;1.00;;;;;26.19;75.42;101510.63;5038294;28;45450;-73
2022/08/01 01:36:48;;;;;;;;;3.00;1.00;;;;;26.18;75.92;101514.28;5020328;28;45510;-73
2022/08/01 01:39:14;;;;;;;;;2.00;1.00;;;;;26.17;75.98;101507.97;5019987;28;46608;-72
2022/08/01 01:41:40;;;;;;;;;2.33;1.00;;;;;26.15;75.68;101511.69;5019979;28;45342;-73
2022/08/01 01:44:06;;;;;;;;;1.00;1.00;;;;;26.15;75.75;101503.56;5020424;28;45314;-72
2022/08/01 01:46:32;;;;;;;;;2.33;1.00;;;;;26.15;76.42;101509.84;5019119;28;45193;-71
2022/08/01 01:48:58;;;;;;;;;2.00;2.00;;;;;26.13;76.54;101506.34;5036993;28;68949;-74
2022/08/01 01:51:25;;;;;;;;;0.33;0.33;;;;;26.09;76.09;101511.00;5019552;28;60657;-72
2022/08/01 01:53:53;;;;;;;;;2.33;1.33;;;;;26.10;77.00;101509.19;5020213;28;45368;-72
2022/08/01 01:56:19;;;;;;;;;1.00;1.00;;;;;26.08;76.45;101509.25;5020257;28;45443;-71
2022/08/01 01:58:45;;;;;;;;;1.00;1.00;;;;;26.09;77.08;101505.59;5037750;28;46484;-72
2022/08/01 02:01:11;;;;;;;;;3.00;2.00;;;;;26.08;76.99;101502.94;5019612;28;52824;-73
2022/08/01 02:03:37;;;;;;;;;4.00;1.00;;;;;26.11;77.13;101508.25;5020033;28;45317;-73
2022/08/01 02:06:03;;;;;;;;;1.00;1.00;;;;;26.08;77.40;101502.94;5020083;28;45480;-71
2022/08/01 02:08:30;;;;;;;;;2.00;1.33;;;;;26.07;77.16;101501.19;5019751;28;47117;-72
2022/08/01 02:13:40;;;;;;;;;1.00;1.00;;;;;26.05;76.93;101506.69;5022278;28;45278;-72
2022/08/01 02:16:06;;;;;;;;;2.00;2.00;;;;;26.07;77.13;101506.63;5036661;28;63583;-73
2022/08/01 02:18:32;;;;;;;;;2.00;2.00;;;;;26.07;77.68;101504.78;5019691;28;46029;-72
2022/08/01 02:20:58;;;;;;;;;1.67;1.67;;;;;26.04;77.83;101502.19;5037069;28;45460;-72
2022/08/01 02:23:28;;;;;;;;;2.00;2.00;;;;;26.04;77.68;101498.63;5019815;28;45465;-72
2022/08/01 02:25:55;;;;;;;;;1.00;1.00;;;;;26.01;77.90;101494.22;5019540;28;45580;-71
2022/08/01 02:28:28;;;;;;;;;2.00;2.00;;;;;26.03;77.99;101502.28;5036756;28;45674;-72
2022/08/01 02:30:54;;;;;;;;;1.33;1.33;;;;;26.05;78.38;101503.97;5037274;28;45304;-71
2022/08/01 02:33:24;;;;;;;;;4.33;1.33;;;;;26.05;78.46;101503.09;5037288;28;45451;-72
2022/08/01 02:35:56;;;;;;;;;1.33;1.33;;;;;26.01;78.30;101507.75;5019760;28;45541;-71
2022/08/01 02:38:24;;;;;;;;;3.00;2.00;;;;;26.03;78.36;101511.25;5019060;28;46737;-73
2022/08/01 02:40:52;;;;;;;;;1.00;1.00;;;;;26.03;78.89;101504.97;5019532;28;45430;-71
2022/08/01 02:43:21;;;;;;;;;1.33;1.33;;;;;26.01;79.46;101498.75;5037214;28;45178;-72
2022/08/01 02:45:51;;;;;;;;;1.00;1.00;;;;;26.01;78.96;101502.34;5037055;28;45281;-72
2022/08/01 02:48:18;;;;;;;;;2.33;1.00;;;;;26.00;78.95;101508.72;5019030;28;46113;-72
2022/08/01 02:50:47;;;;;;;;;1.00;1.00;;;;;26.01;78.91;101502.34;5019091;28;45436;-72
2022/08/01 02:53:14;;;;;;;;;3.00;1.67;;;;;26.01;79.81;101506.88;5036780;28;45302;-72
2022/08/01 02:55:41;;;;;;;;;1.33;1.33;;;;;25.99;79.73;101511.47;5019440;28;45706;-72
2022/08/01 02:58:07;;;;;;;;;3.00;2.00;;;;;25.97;80.28;101503.41;5018918;28;47233;-71
2022/08/01 03:00:33;;;;;;;;;1.00;1.00;;;;;25.95;79.67;101508.03;5019116;28;45283;-71
2022/08/01 03:02:59;;;;;;;;;1.00;1.00;;;;;25.92;80.20;101504.56;5019172;28;45428;-72
2022/08/01 03:05:25;;;;;;;;;1.33;1.00;;;;;25.90;80.24;101499.22;5019289;28;45668;-71
2022/08/01 03:07:53;;;;;;;;;2.00;2.00;;;;;25.90;80.62;101495.63;5019091;28;46503;-71
2022/08/01 03:10:18;;;;;;;;;1.00;1.00;;;;;25.89;80.60;101494.75;5019087;28;45462;-72
2022/08/01 03:12:45;;;;;;;;;1.67;1.67;;;;;25.86;80.78;101487.63;5002403;28;45401;-72
2022/08/01 03:15:13;;;;;;;;;2.00;2.00;;;;;25.88;80.42;101492.09;5018298;28;59474;-71
2022/08/01 03:17:41;;;;;;;;;2.00;2.00;;;;;25.85;80.83;101496.69;5019291;28;49216;-73
2022/08/01 03:20:08;;;;;;;;;1.00;1.00;;;;;25.86;81.01;101501.16;5018853;28;45424;-71
2022/08/01 03:22:34;;;;;;;;;2.00;1.00;;;;;25.88;81.64;101506.50;5019259;28;45403;-72
2022/08/01 03:25:01;;;;;;;;;2.00;1.00;;;;;25.81;81.50;101505.88;5036063;28;65086;-72
2022/08/01 03:27:27;;;;;;;;;2.00;2.00;;;;;25.79;81.85;101509.63;5018075;28;46669;-73
2022/08/01 03:29:56;;;;;;;;;1.00;1.00;;;;;25.77;82.09;101508.78;5018301;28;66011;-71
2022/08/01 03:32:22;;;;;;;;;1.00;1.00;;;;;25.72;82.69;101505.34;5018471;28;45417;-71
2022/08/01 03:34:47;;;;;;;;;1.00;1.00;;;;;25.68;82.98;101503.72;5025613;28;45471;-72
2022/08/01 03:37:29;;;;;;;;;1.00;1.00;;;;;25.66;82.94;101498.38;5016403;28;45683;-72
2022/08/01 03:40:02;;;;;;;;;2.00;2.00;;;;;25.66;83.54;101501.06;5015339;28;45383;-73
2022/08/01 03:42:32;;;;;;;;;0.33;0.33;;;;;25.63;83.62;101498.50;5016689;28;45462;-73
2022/08/01 03:45:02;;;;;;;;;1.00;1.00;;;;;25.66;83.69;101500.19;5016558;28;45415;-73
2022/08/01 03:47:33;;;;;;;;;3.00;2.00;;;;;25.66;84.21;101502.91;5014530;28;46969;-72
2022/08/01 03:50:01;;;;;;;;;1.00;1.00;;;;;25.64;84.33;101504.81;5015083;28;45375;-73
2022/08/01 03:52:28;;;;;;;;;2.00;2.00;;;;;25.60;84.07;101507.63;5016534;28;45266;-72
2022/08/01 03:54:55;;;;;;;;;1.00;1.00;;;;;25.61;84.23;101501.25;5031242;28;45472;-72
2022/08/01 03:57:22;;;;;;;;;1.00;1.00;;;;;25.60;84.68;101501.31;5018286;28;45918;-72
2022/08/01 03:59:48;;;;;;;;;3.00;1.00;;;;;25.63;84.86;101512.03;5018495;28;45360;-72
2022/08/01 04:02:14;;;;;;;;;1.00;1.00;;;;;25.59;84.52;101503.16;5018583;28;45300;-72
2022/08/01 04:04:40;;;;;;;;;1.00;1.00;;;;;25.58;84.57;101500.53;5018358;28;45592;-71
2022/08/01 04:07:23;;;;;;;;;2.00;2.00;;;;;25.62;84.59;101512.97;5018275;28;46829;-72
2022/08/01 04:09:49;;;;;;;;;2.00;1.33;;;;;25.60;84.79;101504.03;5037009;28;45440;-72
2022/08/01 04:12:14;;;;;;;;;0.33;0.33;;;;;25.59;85.63;101505.84;5039583;28;46035;-71
2022/08/01 04:14:39;;;;;;;;;1.00;1.00;;;;;25.62;85.49;101499.47;5038916;28;58205;-71
2022/08/01 04:17:05;;;;;;;;;1.33;1.33;;;;;25.59;85.08;101492.34;5038868;28;50003;-72
2022/08/01 04:19:30;;;;;;;;;1.00;1.00;;;;;25.59;86.40;101495.03;5038196;28;65811;-72
2022/08/01 04:21:56;;;;;;;;;2.00;2.00;;;;;25.57;85.51;101494.25;5039407;28;45341;-71
2022/08/01 04:24:23;;;;;;;;;2.00;2.00;;;;;25.58;85.35;101490.59;5021878;28;45467;-72
2022/08/01 04:26:51;;;;;;;;;2.00;2.00;;;;;25.56;86.27;101489.75;5021377;28;45982;-72
2022/08/01 04:29:17;;;;;;;;;2.67;1.00;;;;;25.52;86.26;101482.72;5021065;28;45437;-72
2022/08/01 04:31:45;;;;;;;;;2.00;1.00;;;;;25.51;86.85;101489.06;5021481;28;45476;-73
2022/08/01 04:34:12;;;;;;;;;4.00;1.00;;;;;25.46;86.76;101484.78;5021240;28;45498;-73
2022/08/01 04:36:38;;;;;;;;;2.00;1.00;;;;;25.42;87.18;101481.34;5021161;28;46462;-72
2022/08/01 04:39:08;;;;;;;;;1.00;1.00;;;;;25.43;87.48;101485.78;5038927;28;45342;-71
2022/08/01 04:41:34;;;;;;;;;0.00;0.00;;;;;25.41;87.95;101484.06;5021536;28;45331;-72
2022/08/01 04:43:59;;;;;;;;;1.00;1.00;;;;;25.35;88.12;101482.50;5021358;28;45344;-71
2022/08/01 04:46:26;;;;;;;;;1.00;1.00;;;;;25.35;88.41;101490.63;5019803;28;72663;-72
2022/08/01 04:48:51;;;;;;;;;1.00;1.00;;;;;25.33;88.28;101490.69;5038954;28;45240;-72
2022/08/01 04:51:17;;;;;;;;;1.00;1.00;;;;;25.31;88.12;101494.41;5021157;28;45322;-72
2022/08/01 04:53:45;;;;;;;;;3.00;1.67;;;;;25.25;88.19;101492.84;5021053;28;45476;-72
2022/08/01 04:56:12;;;;;;;;;0.67;0.67;;;;;25.25;88.77;101505.47;5020912;28;45882;-71
2022/08/01 04:58:41;;;;;;;;;0.00;0.00;;;;;25.20;89.96;101505.63;5021177;28;45411;-71
2022/08/01 05:01:07;;;;;;;;;1.67;1.67;;;;;25.20;89.57;101507.47;5038762;28;45162;-72
2022/08/01 05:03:33;;;;;;;;;0.67;0.67;;;;;25.16;89.55;101509.41;5020977;28;45214;-72
2022/08/01 05:05:58;;;;;;;;;1.00;1.00;;;;;25.13;91.21;101516.72;5038391;28;45890;-72
2022/08/01 05:08:23;;;;;;;;;1.00;1.00;;;;;25.11;90.44;101513.22;5038708;28;49586;-71
2022/08/01 05:10:49;;;;;;;;;1.00;1.00;;;;;25.11;89.97;101522.22;5038645;28;45437;-72
2022/08/01 05:13:15;;;;;;;;;2.67;1.00;;;;;25.12;90.11;101520.38;5038497;28;45519;-71
2022/08/01 05:15:40;;;;;;;;;1.00;1.00;;;;;25.08;91.32;101520.50;5038134;28;46496;-71
2022/08/01 05:18:06;;;;;;;;;1.00;1.00;;;;;25.08;91.26;101527.72;5038486;28;45379;-71
2022/08/01 05:20:31;;;;;;;;;0.00;0.00;;;;;25.04;90.93;101521.53;5020407;28;45430;-72
2022/08/01 05:22:57;;;;;;;;;1.67;1.00;;;;;25.06;90.51;101530.50;5038450;28;45311;-72
2022/08/01 05:25:23;;;;;;;;;1.00;1.00;;;;;25.06;90.60;101530.50;5037176;28;72057;-72
2022/08/01 05:27:49;;;;;;;;;1.00;1.00;;;;;25.05;91.42;101526.00;5020347;28;45311;-71
2022/08/01 05:30:14;;;;;;;;;1.00;1.00;;;;;25.02;90.21;101527.91;5020603;28;45385;-71
2022/08/01 05:32:40;;;;;;;;;1.67;1.67;;;;;24.95;91.21;101513.78;5020716;28;45750;-71
2022/08/01 05:35:07;;;;;;;;;0.00;0.00;;;;;25.01;90.45;101523.47;5038102;28;46694;-72
2022/08/01 05:37:32;;;;;;;;;1.00;1.00;;;;;25.01;90.75;101528.88;5037880;28;45363;-71
2022/08/01 05:39:57;;;;;;;;;0.00;0.00;;;;;25.00;90.60;101530.69;5038174;28;45767;-71
2022/08/01 05:42:23;;;;;;;;;1.00;1.00;;;;;25.03;90.61;101533.25;5037916;28;51849;-72
2022/08/01 05:44:49;;;;;;;;;1.67;1.67;;;;;25.00;90.41;101530.69;5037244;28;69560;-72
2022/08/01 05:47:15;;;;;;;;;3.00;1.00;;;;;24.95;90.52;101527.28;5037613;28;45305;-72
2022/08/01 05:49:40;;;;;;;;;1.00;1.00;;;;;24.97;90.89;101540.72;5037664;28;45217;-73
2022/08/01 05:52:05;;;;;;;;;0.00;0.00;;;;;24.96;90.86;101537.16;5038518;28;45565;-71
2022/08/01 05:54:31;;;;;;;;;0.33;0.33;;;;;24.91;90.81;101528.31;5037488;28;67028;-71
2022/08/01 05:56:59;;;;;;;;;0.67;0.67;;;;;24.96;90.64;101539.84;5037980;28;45366;-71
2022/08/01 05:59:25;;;;;;;;;1.00;1.00;;;;;24.93;90.67;101539.06;5037674;28;45341;-71
2022/08/01 06:01:51;;;;;;;;;2.00;1.00;;;;;24.94;90.73;101541.75;5038023;28;45481;-72
2022/08/01 06:04:16;;;;;;;;;1.67;1.00;;;;;24.95;91.04;101539.91;5037477;28;45532;-73
2022/08/01 06:06:42;;;;;;;;;1.00;1.00;;;;;24.97;90.63;101544.31;5037162;28;58890;-72
2022/08/01 06:09:07;;;;;;;;;1.00;1.00;;;;;24.95;90.80;101537.22;5019624;28;51863;-73
2022/08/01 06:11:32;;;;;;;;;0.33;0.33;;;;;24.95;91.03;101540.78;5037682;28;45560;-71
2022/08/01 06:13:58;;;;;;;;;1.00;1.00;;;;;24.94;90.79;101540.84;5036611;28;63850;-72
2022/08/01 06:16:23;;;;;;;;;1.00;1.00;;;;;24.94;90.76;101538.16;5036663;28;65297;-71
2022/08/01 06:18:49;;;;;;;;;1.67;1.67;;;;;24.92;91.02;101532.78;5037428;28;45478;-72
2022/08/01 06:21:14;;;;;;;;;1.00;1.00;;;;;24.93;91.47;101544.47;5037032;28;49171;-72
2022/08/01 06:23:41;;;;;;;;;1.33;1.33;;;;;24.92;91.29;101554.41;5036637;28;66646;-71
2022/08/01 06:26:06;;;;;;;;;1.00;1.00;;;;;24.89;91.18;101548.25;5019874;28;45431;-72
2022/08/01 06:28:32;;;;;;;;;0.67;0.67;;;;;24.88;91.15;101543.78;5037252;28;45469;-72
2022/08/01 06:30:58;;;;;;;;;1.00;1.00;;;;;24.88;91.16;101546.50;5036752;28;60789;-72
2022/08/01 06:33:24;;;;;;;;;0.33;0.33;;;;;24.88;91.13;101538.38;5018887;28;45421;-72
2022/08/01 06:35:49;;;;;;;;;1.00;1.00;;;;;24.85;90.88;101531.25;5036845;28;57607;-72
2022/08/01 06:38:15;;;;;;;;;0.33;0.33;;;;;24.86;91.29;101541.13;5037639;28;45290;-72
2022/08/01 06:40:40;;;;;;;;;1.00;1.00;;;;;24.88;91.08;101538.38;5037623;28;45282;-72
2022/08/01 06:43:06;;;;;;;;;1.33;1.33;;;;;24.87;91.44;101544.69;5037057;28;45653;-72
2022/08/01 06:45:31;;;;;;;;;1.00;1.00;;;;;24.85;91.34;101544.78;5019152;28;45325;-72
2022/08/01 06:47:56;;;;;;;;;1.00;1.00;;;;;24.86;91.68;101543.81;5036486;28;57908;-72
2022/08/01 06:50:22;;;;;;;;;1.00;1.00;;;;;24.84;91.34;101543.00;5036486;28;56268;-72
2022/08/01 06:52:47;;;;;;;;;2.67;2.00;;;;;24.85;91.84;101547.47;5023283;28;64338;-71
2022/08/01 06:55:13;;;;;;;;;1.00;1.00;;;;;24.84;91.54;101543.00;5029667;28;45388;-72
2022/08/01 06:57:49;;;;;;;;;2.00;2.00;;;;;24.88;91.67;101549.19;5020246;28;45510;-71
2022/08/01 07:00:16;;;;;;;;;1.33;1.33;;;;;24.91;92.18;101540.97;5020708;28;45471;-72
2022/08/01 07:02:41;;;;;;;;;2.00;2.00;;;;;24.95;91.56;101534.50;5021214;28;45824;-72
2022/08/01 07:05:07;;;;;;;;;1.00;1.00;;;;;24.98;91.66;101540.69;5016931;28;45360;-71
2022/08/01 07:07:33;;;;;;;;;3.00;2.00;;;;;25.07;91.45;101539.47;5016828;28;45325;-71
2022/08/01 07:09:58;;;;;;;;;3.00;2.00;;;;;25.13;91.76;101539.22;5016346;28;59328;-72
2022/08/01 07:12:23;;;;;;;;;3.67;2.67;;;;;25.21;91.50;101541.66;5016007;28;65358;-72
2022/08/01 07:14:49;;;;;;;;;5.00;3.67;;;;;25.26;91.34;101534.25;5016766;28;45425;-71
2022/08/01 07:17:14;;;;;;;;;2.67;2.67;;;;;25.32;90.65;101540.28;5016556;28;45489;-71
2022/08/01 07:19:39;;;;;;;;;6.00;3.67;;;;;25.42;90.33;101548.06;5023594;28;59222;-72
2022/08/01 07:22:05;;;;;;;;;3.00;3.00;;;;;25.47;90.24;101546.94;5035860;28;64240;-72
2022/08/01 07:24:31;;;;;;;;;5.00;3.00;;;;;25.48;90.37;101545.09;5036711;28;45417;-71
2022/08/01 07:26:57;;;;;;;;;4.00;4.00;;;;;25.52;90.02;101547.63;5018266;28;45484;-72
2022/08/01 07:29:26;;;;;;;;;4.67;4.00;;;;;25.51;89.17;101559.38;5029627;28;45585;-72
2022/08/01 07:31:55;;;;;;;;;3.67;3.67;;;;;25.54;88.76;101552.97;5016411;28;46484;-72
2022/08/01 07:34:22;;;;;;;;;4.00;4.00;;;;;25.51;88.97;101547.66;5016491;28;45244;-72
2022/08/01 07:36:47;;;;;;;;;4.00;4.00;;;;;25.52;88.81;101549.47;5016479;28;45218;-71
2022/08/01 07:39:12;;;;;;;;;6.00;5.00;;;;;25.53;88.50;101554.78;4999080;28;45482;-71
2022/08/01 07:41:38;;;;;;;;;4.00;4.00;;;;;25.58;87.93;101560.03;5016259;28;45463;-73
2022/08/01 07:44:03;;;;;;;;;4.33;4.33;;;;;25.56;88.08;101559.19;5015862;28;69880;-72
2022/08/01 07:46:30;;;;;;;;;3.67;3.67;;;;;25.59;87.97;101572.59;5018696;28;59619;-72
2022/08/01 07:48:55;;;;;;;;;4.00;2.00;;;;;25.57;88.30;101569.09;5019980;28;45636;-71
2022/08/01 07:51:20;;;;;;;;;4.67;4.67;;;;;25.54;88.36;101566.50;5019617;28;45423;-71
2022/08/01 07:53:46;;;;;;;;;3.00;3.00;;;;;25.52;87.84;101571.97;5026400;28;45346;-72
2022/08/01 07:56:11;;;;;;;;;5.00;5.00;;;;;25.57;88.32;101583.50;5040043;28;45358;-72
2022/08/01 07:58:36;;;;;;;;;4.33;4.00;;;;;25.57;88.09;101575.38;5039346;28;54946;-72
2022/08/01 08:01:02;;;;;;;;;4.33;4.33;;;;;25.57;88.29;101569.97;5021712;28;45999;-71
2022/08/01 08:03:27;;;;;;;;;4.33;3.00;;;;;25.54;88.06;101577.31;5039384;28;45265;-73
2022/08/01 08:05:53;;;;;;;;;5.00;5.00;;;;;25.54;88.03;101574.59;5021676;28;45368;-73
2022/08/01 08:08:18;;;;;;;;;3.67;3.67;;;;;25.60;88.45;101571.66;5039766;28;45446;-71
2022/08/01 08:10:44;;;;;;;;;3.00;3.00;;;;;25.71;88.48;101580.22;5039371;28;45851;-73
2022/08/01 08:13:09;;;;;;;;;4.67;4.00;;;;;25.77;88.25;101574.59;5039269;28;45404;-71
2022/08/01 08:15:35;;;;;;;;;6.00;4.33;;;;;25.85;87.38;101579.69;5038606;28;57631;-74
2022/08/01 08:18:00;;;;;;;;;6.00;4.00;;;;;25.92;87.72;101572.22;5039047;28;55558;-73
2022/08/01 08:20:27;;;;;;;;;4.00;4.00;;;;;25.99;87.35;101571.88;5038548;28;60816;-71
2022/08/01 08:22:53;;;;;;;;;4.33;4.33;;;;;26.03;86.30;101576.22;5039211;28;45307;-71
2022/08/01 08:25:19;;;;;;;;;3.00;3.00;;;;;26.04;86.52;101577.97;5039117;28;45414;-73
2022/08/01 08:27:45;;;;;;;;;5.00;5.00;;;;;26.05;85.84;101584.31;5039095;28;45415;-72
2022/08/01 08:30:11;;;;;;;;;4.33;4.33;;;;;26.03;86.27;101581.63;5021193;28;46730;-72
2022/08/01 08:32:37;;;;;;;;;3.67;3.67;;;;;25.99;86.51;101580.00;5039093;28;45486;-71
2022/08/01 08:35:03;;;;;;;;;6.33;5.00;;;;;25.95;85.94;101574.81;5021397;28;45517;-72
2022/08/01 08:37:28;;;;;;;;;3.33;3.33;;;;;25.93;86.14;101564.00;5039238;28;45478;-72
2022/08/01 08:39:54;;;;;;;;;4.00;4.00;;;;;25.98;85.74;101566.53;5038194;28;63444;-71
2022/08/01 08:42:19;;;;;;;;;3.33;3.33;;;;;26.02;85.27;101560.94;5038397;28;65789;-72
2022/08/01 08:44:45;;;;;;;;;4.33;4.33;;;;;26.06;85.90;101564.41;5038435;28;59121;-71
2022/08/01 08:47:14;;;;;;;;;4.00;4.00;;;;;26.16;84.93;101562.19;5038240;28;57373;-72
2022/08/01 08:49:42;;;;;;;;;4.67;4.00;;;;;26.26;85.11;101552.72;5145987;22;46534;-72
2022/08/01 08:52:09;;;;;;;;;4.00;4.00;;;;;26.42;84.13;101561.09;5017793;28;45296;-72
2022/08/01 08:54:35;;;;;;;;;4.00;4.00;;;;;26.49;83.35;101554.47;5017095;28;45443;-72
2022/08/01 08:57:01;;;;;;;;;4.00;4.00;;;;;26.58;83.25;101551.34;5018665;28;45633;-72
2022/08/01 08:59:27;;;;;;;;;3.67;3.00;;;;;26.68;83.04;101558.09;5017356;28;45963;-72
2022/08/01 09:01:53;;;;;;;;;6.00;3.00;;;;;26.73;82.08;101555.19;5017586;28;45307;-73
2022/08/01 09:04:21;;;;;;;;;4.67;3.67;;;;;26.76;81.46;101555.94;5018161;28;57410;-71
2022/08/01 09:06:46;;;;;;;;;3.33;3.33;;;;;26.78;80.71;101554.03;5019028;28;45215;-72
2022/08/01 09:09:12;;;;;;;;;4.00;4.00;;;;;26.84;80.24;101564.59;5017750;28;64297;-73
2022/08/01 09:11:37;;;;;;;;;3.33;3.33;;;;;26.90;79.57;101566.19;5018645;28;45349;-71
2022/08/01 09:14:05;;;;;;;;;3.00;3.00;;;;;26.89;79.30;101567.09;5018594;28;45273;-71
2022/08/01 09:16:32;;;;;;;;;2.33;2.33;;;;;26.93;79.01;101562.44;5018518;28;45549;-74
2022/08/01 09:19:14;;;;;;;;;2.67;2.67;;;;;27.00;78.68;101578.34;5018134;28;46919;-72
2022/08/01 09:21:40;;;;;;;;;3.00;3.00;;;;;27.03;78.69;101572.78;5018405;28;45554;-73
2022/08/01 09:24:14;;;;;;;;;3.33;3.00;;;;;27.05;77.97;101570.88;5018671;28;45308;-71
2022/08/01 09:26:39;;;;;;;;;3.33;3.33;;;;;27.05;77.20;101567.28;5018360;28;45497;-72
2022/08/01 09:29:06;;;;;;;;;3.33;3.00;;;;;27.01;77.56;101576.53;5017771;28;58175;-71
2022/08/01 09:31:42;;;;;;;;;2.33;2.33;;;;;26.97;77.36;101574.91;5018302;28;45343;-72
2022/08/01 09:34:09;;;;;;;;;3.67;2.00;;;;;26.91;76.46;101567.94;5017526;28;45343;-72
2022/08/01 09:36:51;;;;;;;;;3.00;3.00;;;;;26.84;76.63;101569.13;5020790;28;45445;-72
2022/08/01 09:39:18;;;;;;;;;4.00;2.67;;;;;26.81;76.22;101570.19;5018704;28;45870;-71
2022/08/01 09:41:43;;;;;;;;;3.67;2.33;;;;;26.76;76.10;101564.06;5018189;28;45241;-72
2022/08/01 09:44:08;;;;;;;;;2.00;2.00;;;;;26.74;77.13;101551.53;5016713;28;53749;-73
2022/08/01 09:46:34;;;;;;;;;4.00;2.67;;;;;26.75;76.17;101564.16;5017343;28;55675;-72
2022/08/01 09:49:05;;;;;;;;;3.00;3.00;;;;;26.67;76.31;101566.31;5019728;28;61436;-71
2022/08/01 09:51:35;;;;;;;;;2.67;2.67;;;;;26.58;76.50;101565.78;5037811;28;45386;-73
2022/08/01 09:54:04;;;;;;;;;4.00;4.00;;;;;26.58;76.45;101579.34;5037748;28;45297;-71
2022/08/01 09:56:36;;;;;;;;;2.00;2.00;;;;;26.55;77.46;101563.19;5037996;28;45579;-71
2022/08/01 09:59:02;;;;;;;;;3.00;3.00;;;;;26.58;78.18;101579.34;5037720;28;46172;-72
2022/08/01 10:01:28;;;;;;;;;4.00;4.00;;;;;26.57;77.46;101569.41;5019749;28;45444;-71
2022/08/01 10:04:09;;;;;;;;;3.00;3.00;;;;;26.64;77.56;101579.06;5038055;28;45363;-71
2022/08/01 10:06:35;;;;;;;;;3.00;3.00;;;;;26.66;77.71;101570.84;5037984;28;45478;-72
2022/08/01 10:09:01;;;;;;;;;5.00;3.33;;;;;26.70;77.59;101567.06;5036388;28;46500;-71
2022/08/01 10:11:27;;;;;;;;;2.00;2.00;;;;;26.76;77.58;101557.78;5037005;28;64744;-72
2022/08/01 10:13:52;;;;;;;;;4.00;4.00;;;;;26.82;77.27;101565.63;5037311;28;45265;-72
2022/08/01 10:16:19;;;;;;;;;4.67;4.67;;;;;26.93;76.96;101557.00;5036240;28;45526;-71
2022/08/01 10:18:44;;;;;;;;;5.00;5.00;;;;;27.08;77.38;101562.66;5018945;28;61008;-72
2022/08/01 10:21:11;;;;;;;;;4.00;4.00;;;;;27.31;76.42;101568.81;5019432;28;45399;-72
2022/08/01 10:23:37;;;;;;;;;4.67;4.33;;;;;27.54;76.39;101574.03;5037299;28;46216;-72
2022/08/01 10:26:05;;;;;;;;;2.67;2.67;;;;;27.76;75.37;101576.63;5037527;28;45343;-73
2022/08/01 10:28:30;;;;;;;;;6.00;4.00;;;;;27.94;73.97;101564.84;5036764;28;46833;-72
2022/08/01 10:31:00;;;;;;;;;7.00;4.67;;;;;28.03;74.29;101570.78;5036145;28;45375;-71
2022/08/01 10:33:25;;;;;;;;;5.33;4.67;;;;;28.04;73.72;101567.09;5037049;28;45328;-73
2022/08/01 10:35:51;;;;;;;;;5.67;5.67;;;;;28.03;73.40;101566.22;5037391;28;45238;-72
2022/08/01 10:38:17;;;;;;;;;4.33;4.00;;;;;27.99;72.82;101569.16;5036324;28;61688;-71
2022/08/01 10:40:44;;;;;;;;;5.00;3.00;;;;;27.88;72.67;101564.28;5037301;28;45416;-71
2022/08/01 10:43:10;;;;;;;;;5.00;5.00;;;;;27.86;72.74;101572.50;5037351;28;45329;-72
2022/08/01 10:45:36;;;;;;;;;5.00;5.00;;;;;27.84;72.71;101568.09;5037131;28;45376;-72
2022/08/01 10:48:10;;;;;;;;;6.00;6.00;;;;;27.87;72.62;101566.13;5036975;28;48975;-71
2022/08/01 10:50:42;;;;;;;;;5.00;5.00;;;;;28.00;73.00;101570.94;5036858;28;45319;-72
2022/08/01 10:53:08;;;;;;;;;2.00;2.00;;;;;28.14;72.10;101558.41;5018969;28;45260;-72
2022/08/01 10:56:05;;;;;;;;;4.67;4.67;;;;;28.27;71.66;101561.38;5037143;28;45270;-74
2022/08/01 10:58:38;;;;;;;;;4.33;4.00;;;;;28.33;70.96;101566.53;5036849;28;45886;-73
2022/08/01 11:01:17;;;;;;;;;4.67;4.67;;;;;28.36;71.29;101557.34;5036729;28;45524;-73
2022/08/01 11:03:44;;;;;;;;;4.33;4.33;;;;;28.41;71.00;101556.16;5037059;28;45447;-72
2022/08/01 11:06:16;;;;;;;;;4.00;4.00;;;;;28.48;71.02;101567.56;5035841;28;45460;-72
2022/08/01 11:08:43;;;;;;;;;5.00;3.67;;;;;28.51;70.80;101558.41;5027369;28;46707;-71
2022/08/01 11:11:09;;;;;;;;;4.33;4.33;;;;;28.59;70.12;101567.00;5018614;28;45360;-72
2022/08/01 11:14:12;;;;;;;;;5.00;5.00;;;;;28.65;69.52;101556.69;5018869;28;45380;-73
2022/08/01 11:16:39;;;;;;;;;5.00;4.67;;;;;28.75;70.38;101561.63;5036845;28;45360;-72
2022/08/01 11:19:07;;;;;;;;;4.33;4.00;;;;;28.82;69.61;101566.69;5033629;28;45442;-71
2022/08/01 11:21:52;;;;;;;;;5.33;5.33;;;;;28.79;69.01;101563.25;5040201;28;45237;-71
2022/08/01 11:24:46;;;;;;;;;7.67;5.00;;;;;28.70;69.25;101561.88;5040144;28;45333;-72
2022/08/01 11:27:27;;;;;;;;;5.00;5.00;;;;;28.58;69.56;101555.25;5039814;28;45360;-72
2022/08/01 11:30:08;;;;;;;;;4.33;4.33;;;;;28.61;69.57;101557.81;5039156;28;47048;-73